createdAt,value
2019-05-21T00:00:59.084Z,998.00
2019-05-21T00:01:57.365Z,998.03
2019-05-21T00:03:03.097Z,998.02
2019-05-21T00:04:27.850Z,998.05
2019-05-21T00:05:17.653Z,998.02
2019-05-21T00:06:22.359Z,998.03
2019-05-21T00:07:31.176Z,997.99
2019-05-21T00:08:19.342Z,998.02
2019-05-21T00:09:35.489Z,998.02
2019-05-21T00:10:27.404Z,998.01
2019-05-21T00:11:52.507Z,998.00
2019-05-21T00:12:35.609Z,998.05
2019-05-21T00:13:49.338Z,998.05
2019-05-21T00:14:58.458Z,998.08
2019-05-21T00:16:36.455Z,998.06
2019-05-21T00:16:58.477Z,998.04
2019-05-21T00:18:50.612Z,997.99
2019-05-21T00:19:28.489Z,998.04
2019-05-21T00:20:34.735Z,998.01
2019-05-21T00:21:38.641Z,997.97
2019-05-21T00:22:45.611Z,997.89
2019-05-21T00:24:01.595Z,997.96
2019-05-21T00:25:06.724Z,997.98
2019-05-21T00:25:53.742Z,997.92
2019-05-21T00:27:23.733Z,997.98
2019-05-21T00:28:12.780Z,998.00
2019-05-21T00:29:50.482Z,997.91
2019-05-21T00:30:35.734Z,997.97
2019-05-21T00:31:46.082Z,997.95
2019-05-21T00:32:19.671Z,997.93
2019-05-21T00:33:58.901Z,997.91
2019-05-21T00:34:41.691Z,997.92
2019-05-21T00:35:58.091Z,997.89
2019-05-21T00:36:55.851Z,997.90
2019-05-21T00:38:33.126Z,997.88
2019-05-21T00:39:29.250Z,997.83
2019-05-21T00:40:37.030Z,997.82
2019-05-21T00:41:38.061Z,997.83
2019-05-21T00:42:24.038Z,997.81
2019-05-21T00:43:34.083Z,997.77
2019-05-21T00:44:33.065Z,997.81
2019-05-21T00:45:27.446Z,997.78
2019-05-21T00:47:30.216Z,997.79
2019-05-21T00:48:24.185Z,997.75
2019-05-21T00:48:53.523Z,997.77
2019-05-21T00:50:53.421Z,997.70
2019-05-21T00:51:13.449Z,997.72
2019-05-21T00:52:47.354Z,997.61
2019-05-21T00:53:48.384Z,997.66
2019-05-21T00:54:50.240Z,997.62
2019-05-21T00:55:50.455Z,997.63
2019-05-21T00:57:26.705Z,997.60
2019-05-21T00:58:27.425Z,997.63
2019-05-21T00:59:00.605Z,997.60
2019-05-21T01:00:55.138Z,997.56
2019-05-21T01:01:51.515Z,997.64
2019-05-21T01:03:52.962Z,997.58
2019-05-21T01:05:21.812Z,997.61
2019-05-21T01:06:45.867Z,997.66
2019-05-21T01:07:26.360Z,997.62
2019-05-21T01:08:46.949Z,997.67
2019-05-21T01:09:22.485Z,997.64
2019-05-21T01:10:38.669Z,997.64
2019-05-21T01:12:30.497Z,997.66
2019-05-21T01:13:11.964Z,997.67
2019-05-21T01:14:10.853Z,997.71
2019-05-21T01:16:03.923Z,997.64
2019-05-21T01:17:26.354Z,997.63
2019-05-21T01:18:10.055Z,997.65
2019-05-21T01:19:48.561Z,997.64
2019-05-21T01:20:45.087Z,997.60
2019-05-21T01:22:23.089Z,997.61
2019-05-21T01:23:49.820Z,997.63
2019-05-21T01:24:59.047Z,997.63
2019-05-21T01:25:49.320Z,997.68
2019-05-21T01:26:56.396Z,997.66
2019-05-21T01:28:47.394Z,997.66
2019-05-21T01:30:21.091Z,997.65
2019-05-21T01:31:31.237Z,997.67
2019-05-21T01:32:03.907Z,997.68
2019-05-21T01:33:01.556Z,997.67
2019-05-21T01:34:23.281Z,997.67
2019-05-21T01:35:43.246Z,997.68
2019-05-21T01:36:34.650Z,997.70
2019-05-21T01:37:41.209Z,997.67
2019-05-21T01:39:09.785Z,997.66
2019-05-21T01:40:12.363Z,997.66
2019-05-21T01:40:45.842Z,997.65
2019-05-21T01:41:53.732Z,997.61
2019-05-21T01:42:59.574Z,997.64
2019-05-21T01:44:16.280Z,997.62
2019-05-21T01:45:08.805Z,997.64
2019-05-21T01:46:39.521Z,997.62
2019-05-21T01:47:13.463Z,997.61
2019-05-21T01:48:37.509Z,997.62
2019-05-21T01:49:58.300Z,997.61
2019-05-21T01:50:59.121Z,997.62
2019-05-21T01:51:56.975Z,997.68
2019-05-21T01:53:18.898Z,997.65
2019-05-21T01:54:12.656Z,997.66
2019-05-21T01:56:03.868Z,997.68
2019-05-21T01:56:52.302Z,997.64
2019-05-21T01:57:58.758Z,997.71
2019-05-21T01:59:10.130Z,997.67
2019-05-21T01:59:41.670Z,997.69
2019-05-21T02:01:03.907Z,997.72
2019-05-21T02:02:29.915Z,997.71
2019-05-21T02:03:43.753Z,997.72
2019-05-21T02:04:06.271Z,997.75
2019-05-21T02:05:33.532Z,997.78
2019-05-21T02:06:30.249Z,997.83
2019-05-21T02:07:29.845Z,997.75
2019-05-21T02:08:45.314Z,997.82
2019-05-21T02:09:55.364Z,997.83
2019-05-21T02:11:05.091Z,997.86
2019-05-21T02:12:17.395Z,997.87
2019-05-21T02:13:06.640Z,997.88
2019-05-21T02:14:02.245Z,997.90
2019-05-21T02:15:16.286Z,997.95
2019-05-21T02:16:26.432Z,997.90
2019-05-21T02:17:14.863Z,997.94
2019-05-21T02:18:23.574Z,997.92
2019-05-21T02:20:01.058Z,997.95
2019-05-21T02:20:42.326Z,997.93
2019-05-21T02:21:56.363Z,997.95
2019-05-21T02:23:04.869Z,997.97
2019-05-21T02:24:19.622Z,997.97
2019-05-21T02:25:05.500Z,998.02
2019-05-21T02:26:09.332Z,997.96
2019-05-21T02:27:20.768Z,997.98
2019-05-21T02:28:19.849Z,998.00
2019-05-21T02:29:36.041Z,998.06
2019-05-21T02:30:39.533Z,998.01
2019-05-21T02:31:28.884Z,998.00
2019-05-21T02:32:44.968Z,998.02
2019-05-21T02:33:59.517Z,998.03
2019-05-21T02:35:13.758Z,998.04
2019-05-21T02:36:01.997Z,998.03
2019-05-21T02:36:52.884Z,998.01
2019-05-21T02:37:51.248Z,998.01
2019-05-21T02:38:59.965Z,998.06
2019-05-21T02:40:32.323Z,998.06
2019-05-21T02:41:36.025Z,998.10
2019-05-21T02:42:58.350Z,998.13
2019-05-21T02:43:45.970Z,998.09
2019-05-21T02:44:54.050Z,998.11
2019-05-21T02:45:48.742Z,998.10
2019-05-21T02:46:57.146Z,998.11
2019-05-21T02:48:18.352Z,998.02
2019-05-21T02:49:07.097Z,998.01
2019-05-21T02:50:06.284Z,998.03
2019-05-21T02:51:20.933Z,998.01
2019-05-21T02:52:44.404Z,998.03
2019-05-21T02:53:25.967Z,998.03
2019-05-21T02:54:41.703Z,998.05
2019-05-21T02:55:51.164Z,998.03
2019-05-21T02:56:48.416Z,998.03
2019-05-21T02:58:15.049Z,998.04
2019-05-21T02:58:52.316Z,998.07
2019-05-21T03:00:08.091Z,998.07
2019-05-21T03:01:26.939Z,998.09
2019-05-21T03:02:29.507Z,998.10
2019-05-21T03:03:19.477Z,998.13
2019-05-21T03:04:29.455Z,998.10
2019-05-21T03:05:44.280Z,998.13
2019-05-21T03:06:36.600Z,998.11
2019-05-21T03:07:45.728Z,998.18
2019-05-21T03:08:54.743Z,998.15
2019-05-21T03:10:04.983Z,998.11
2019-05-21T03:11:08.476Z,998.09
2019-05-21T03:12:10.227Z,998.17
2019-05-21T03:13:19.445Z,998.19
2019-05-21T03:14:11.771Z,998.15
2019-05-21T03:15:11.674Z,998.17
2019-05-21T03:16:29.913Z,998.14
2019-05-21T03:17:22.648Z,998.13
2019-05-21T03:18:48.559Z,998.18
2019-05-21T03:19:30.649Z,998.13
2019-05-21T03:20:48.777Z,998.14
2019-05-21T03:22:01.381Z,998.11
2019-05-21T03:22:59.849Z,998.16
2019-05-21T03:23:57.308Z,998.14
2019-05-21T03:25:08.059Z,998.16
2019-05-21T03:26:09.727Z,998.10
2019-05-21T03:27:20.992Z,998.08
2019-05-21T03:28:41.768Z,998.14
2019-05-21T03:29:26.927Z,998.16
2019-05-21T03:30:33.901Z,998.14
2019-05-21T03:31:49.169Z,998.18
2019-05-21T03:33:00.125Z,998.16
2019-05-21T03:33:54.707Z,998.21
2019-05-21T03:35:16.642Z,998.14
2019-05-21T03:35:53.697Z,998.22
2019-05-21T03:37:09.986Z,998.20
2019-05-21T03:38:15.318Z,998.22
2019-05-21T03:39:36.726Z,998.24
2019-05-21T03:40:32.325Z,998.32
2019-05-21T03:41:23.425Z,998.32
2019-05-21T03:42:42.900Z,998.32
2019-05-21T03:43:43.207Z,998.33
2019-05-21T03:44:58.844Z,998.29
2019-05-21T03:45:51.306Z,998.34
2019-05-21T03:46:49.879Z,998.34
2019-05-21T03:47:49.886Z,998.31
2019-05-21T03:49:10.697Z,998.33
2019-05-21T03:50:11.505Z,998.31
2019-05-21T03:51:46.226Z,998.30
2019-05-21T03:52:18.383Z,998.31
2019-05-21T03:53:20.538Z,998.35
2019-05-21T03:54:41.335Z,998.36
2019-05-21T03:56:10.727Z,998.31
2019-05-21T03:56:57.627Z,998.32
2019-05-21T03:58:18.423Z,998.35
2019-05-21T03:59:08.683Z,998.36
2019-05-21T04:00:09.324Z,998.32
2019-05-21T04:01:06.871Z,998.33
2019-05-21T04:02:27.668Z,998.31
2019-05-21T04:03:53.783Z,998.29
2019-05-21T04:04:13.827Z,998.27
2019-05-21T04:06:00.455Z,998.28
2019-05-21T04:06:52.704Z,998.28
2019-05-21T04:08:02.225Z,998.31
2019-05-21T04:08:56.450Z,998.37
2019-05-21T04:09:45.529Z,998.39
2019-05-21T04:11:13.907Z,998.40
2019-05-21T04:12:09.709Z,998.41
2019-05-21T04:13:08.430Z,998.46
2019-05-21T04:14:16.501Z,998.45
2019-05-21T04:15:41.166Z,998.47
2019-05-21T04:16:21.208Z,998.48
2019-05-21T04:17:43.032Z,998.54
2019-05-21T04:18:54.093Z,998.52
2019-05-21T04:20:10.998Z,998.52
2019-05-21T04:20:47.037Z,998.55
2019-05-21T04:21:49.914Z,998.58
2019-05-21T04:23:09.074Z,998.58
2019-05-21T04:24:24.749Z,998.59
2019-05-21T04:25:09.084Z,998.57
2019-05-21T04:26:31.118Z,998.56
2019-05-21T04:27:31.024Z,998.55
2019-05-21T04:28:37.265Z,998.47
2019-05-21T04:29:29.082Z,998.59
2019-05-21T04:30:40.248Z,998.52
2019-05-21T04:31:46.910Z,998.51
2019-05-21T04:32:53.676Z,998.46
2019-05-21T04:33:55.427Z,998.36
2019-05-21T04:35:04.341Z,998.37
2019-05-21T04:36:10.999Z,998.41
2019-05-21T04:37:12.069Z,998.37
2019-05-21T04:38:19.415Z,998.36
2019-05-21T04:39:29.484Z,998.32
2019-05-21T04:40:40.115Z,998.40
2019-05-21T04:41:35.202Z,998.43
2019-05-21T04:42:51.394Z,998.43
2019-05-21T04:43:44.128Z,998.44
2019-05-21T04:44:53.249Z,998.44
2019-05-21T04:46:03.911Z,998.49
2019-05-21T04:47:07.495Z,998.50
2019-05-21T04:48:00.229Z,998.51
2019-05-21T04:49:24.197Z,998.50
2019-05-21T04:50:26.457Z,998.51
2019-05-21T04:51:28.207Z,998.58
2019-05-21T04:52:37.427Z,998.58
2019-05-21T04:53:37.436Z,998.57
2019-05-21T04:54:48.603Z,998.58
2019-05-21T04:55:49.671Z,998.55
2019-05-21T04:56:33.872Z,998.53
2019-05-21T04:58:11.460Z,998.55
2019-05-21T04:59:12.499Z,998.48
2019-05-21T05:00:06.779Z,998.51
2019-05-21T05:01:26.845Z,998.50
2019-05-21T05:02:33.707Z,998.54
2019-05-21T05:03:27.776Z,998.51
2019-05-21T05:04:34.910Z,998.51
2019-05-21T05:05:41.820Z,998.50
2019-05-21T05:06:52.473Z,998.51
2019-05-21T05:07:36.917Z,998.55
2019-05-21T05:09:03.862Z,998.53
2019-05-21T05:10:03.974Z,998.53
2019-05-21T05:10:55.780Z,998.57
2019-05-21T05:12:07.874Z,998.55
2019-05-21T05:13:31.734Z,998.57
2019-05-21T05:14:13.824Z,998.57
2019-05-21T05:15:32.778Z,998.59
2019-05-21T05:16:28.378Z,998.63
2019-05-21T05:18:03.610Z,998.60
2019-05-21T05:18:35.457Z,998.62
2019-05-21T05:20:01.063Z,998.61
2019-05-21T05:20:49.094Z,998.60
2019-05-21T05:22:00.973Z,998.61
2019-05-21T05:23:03.027Z,998.64
2019-05-21T05:24:08.872Z,998.66
2019-05-21T05:25:21.988Z,998.61
2019-05-21T05:26:38.585Z,998.67
2019-05-21T05:27:21.904Z,998.65
2019-05-21T05:28:37.673Z,998.66
2019-05-21T05:30:03.899Z,998.65
2019-05-21T05:31:10.254Z,998.67
2019-05-21T05:31:51.007Z,998.67
2019-05-21T05:33:04.099Z,998.65
2019-05-21T05:33:59.214Z,998.69
2019-05-21T05:35:04.957Z,998.70
2019-05-21T05:36:20.125Z,998.72
2019-05-21T05:37:42.758Z,998.81
2019-05-21T05:38:32.828Z,998.80
2019-05-21T05:39:37.974Z,998.79
2019-05-21T05:40:28.950Z,998.82
2019-05-21T05:41:50.465Z,998.79
2019-05-21T05:42:57.432Z,998.82
2019-05-21T05:44:04.106Z,998.82
2019-05-21T05:45:04.000Z,998.83
2019-05-21T05:45:59.296Z,998.84
2019-05-21T05:47:26.235Z,998.82
2019-05-21T05:48:19.781Z,998.84
2019-05-21T05:49:31.163Z,998.87
2019-05-21T05:50:19.495Z,998.83
2019-05-21T05:51:38.456Z,998.90
2019-05-21T05:52:49.208Z,998.82
2019-05-21T05:54:07.578Z,998.85
2019-05-21T05:55:01.305Z,998.87
2019-05-21T05:56:18.309Z,998.93
2019-05-21T05:56:54.353Z,998.97
2019-05-21T05:58:12.701Z,998.98
2019-05-21T05:59:14.636Z,999.03
2019-05-21T06:00:39.533Z,999.07
2019-05-21T06:01:18.449Z,999.07
2019-05-21T06:02:23.679Z,999.08
2019-05-21T06:03:41.394Z,999.07
2019-05-21T06:04:38.746Z,999.07
2019-05-21T06:05:55.337Z,999.06
2019-05-21T06:06:48.690Z,999.07
2019-05-21T06:08:00.156Z,999.05
2019-05-21T06:08:59.159Z,999.02
2019-05-21T06:10:20.452Z,999.05
2019-05-21T06:11:29.783Z,999.05
2019-05-21T06:12:13.707Z,999.01
2019-05-21T06:13:15.777Z,999.05
2019-05-21T06:14:19.865Z,999.04
2019-05-21T06:15:21.000Z,999.01
2019-05-21T06:16:46.811Z,998.99
2019-05-21T06:17:39.857Z,999.03
2019-05-21T06:19:07.926Z,999.09
2019-05-21T06:20:16.732Z,999.07
2019-05-21T06:21:02.816Z,999.09
2019-05-21T06:21:59.131Z,999.07
2019-05-21T06:23:25.773Z,999.09
2019-05-21T06:24:20.763Z,999.13
2019-05-21T06:25:31.204Z,999.14
2019-05-21T06:26:28.243Z,999.11
2019-05-21T06:27:51.098Z,999.15
2019-05-21T06:28:34.194Z,999.12
2019-05-21T06:29:45.671Z,999.16
2019-05-21T06:30:40.251Z,999.21
2019-05-21T06:32:08.213Z,999.18
2019-05-21T06:33:03.199Z,999.17
2019-05-21T06:33:56.040Z,999.16
2019-05-21T06:35:12.946Z,999.20
2019-05-21T06:36:13.259Z,999.30
2019-05-21T06:37:26.881Z,999.22
2019-05-21T06:38:17.815Z,999.28
2019-05-21T06:39:28.331Z,999.35
2019-05-21T06:40:42.367Z,999.36
2019-05-21T06:41:45.346Z,999.39
2019-05-21T06:42:46.482Z,999.38
2019-05-21T06:44:03.176Z,999.40
2019-05-21T06:44:59.193Z,999.38
2019-05-21T06:46:11.279Z,999.34
2019-05-21T06:47:12.207Z,999.37
2019-05-21T06:48:19.184Z,999.34
2019-05-21T06:49:17.444Z,999.37
2019-05-21T06:50:21.447Z,999.38
2019-05-21T06:51:31.125Z,999.40
2019-05-21T06:52:43.096Z,999.45
2019-05-21T06:53:53.317Z,999.42
2019-05-21T06:55:00.394Z,999.47
2019-05-21T06:55:54.350Z,999.52
2019-05-21T06:56:51.386Z,999.51
2019-05-21T06:58:07.675Z,999.57
2019-05-21T06:59:04.711Z,999.60
2019-05-21T07:00:14.343Z,999.64
2019-05-21T07:01:27.667Z,999.66
2019-05-21T07:02:38.727Z,999.71
2019-05-21T07:03:26.554Z,999.69
2019-05-21T07:04:39.561Z,999.73
2019-05-21T07:05:38.350Z,999.74
2019-05-21T07:06:44.262Z,999.78
2019-05-21T07:07:46.042Z,999.80
2019-05-21T07:09:03.550Z,999.80
2019-05-21T07:10:14.515Z,999.82
2019-05-21T07:11:10.221Z,999.84
2019-05-21T07:12:17.292Z,999.84
2019-05-21T07:13:33.388Z,999.88
2019-05-21T07:14:29.493Z,999.90
2019-05-21T07:15:35.646Z,999.88
2019-05-21T07:16:42.929Z,999.88
2019-05-21T07:17:36.684Z,999.92
2019-05-21T07:18:52.356Z,999.92
2019-05-21T07:20:00.556Z,999.95
2019-05-21T07:20:54.828Z,999.90
2019-05-21T07:22:11.470Z,999.89
2019-05-21T07:23:21.976Z,999.81
2019-05-21T07:24:15.633Z,999.78
2019-05-21T07:25:19.634Z,999.83
2019-05-21T07:26:31.727Z,999.83
2019-05-21T07:27:35.930Z,999.85
2019-05-21T07:28:40.755Z,999.93
2019-05-21T07:29:40.963Z,999.94
2019-05-21T07:30:57.768Z,999.93
2019-05-21T07:32:00.057Z,999.90
2019-05-21T07:33:01.621Z,999.91
2019-05-21T07:34:19.699Z,999.89
2019-05-21T07:34:57.381Z,999.89
2019-05-21T07:36:21.142Z,999.91
2019-05-21T07:37:28.010Z,999.90
2019-05-21T07:38:52.131Z,999.96
2019-05-21T07:39:28.947Z,999.95
2019-05-21T07:40:47.903Z,999.95
2019-05-21T07:41:45.243Z,1000.00
2019-05-21T07:43:07.997Z,1000.07
2019-05-21T07:43:44.287Z,1000.04
2019-05-21T07:45:09.231Z,1000.05
2019-05-21T07:46:12.302Z,1000.10
2019-05-21T07:47:15.588Z,1000.06
2019-05-21T07:48:16.106Z,1000.10
2019-05-21T07:49:41.102Z,1000.07
2019-05-21T07:50:44.897Z,1000.08
2019-05-21T07:51:35.889Z,1000.11
2019-05-21T07:52:53.110Z,1000.12
2019-05-21T07:53:50.138Z,1000.14
2019-05-21T07:54:51.988Z,1000.23
2019-05-21T07:55:53.429Z,1000.18
2019-05-21T07:57:03.375Z,1000.21
2019-05-21T07:58:04.400Z,1000.20
2019-05-21T07:59:18.023Z,1000.23
2019-05-21T08:00:24.490Z,1000.29
2019-05-21T08:01:20.702Z,1000.32
2019-05-21T08:02:27.161Z,1000.36
2019-05-21T08:03:28.507Z,1000.37
2019-05-21T08:04:45.195Z,1000.36
2019-05-21T08:05:50.228Z,1000.39
2019-05-21T08:07:07.125Z,1000.44
2019-05-21T08:08:14.197Z,1000.43
2019-05-21T08:09:11.352Z,1000.44
2019-05-21T08:10:10.469Z,1000.45
2019-05-21T08:11:18.005Z,1000.43
2019-05-21T08:12:34.535Z,1000.44
2019-05-21T08:13:22.430Z,1000.46
2019-05-21T08:14:37.381Z,1000.44
2019-05-21T08:15:41.286Z,1000.46
2019-05-21T08:16:40.875Z,1000.42
2019-05-21T08:18:02.181Z,1000.48
2019-05-21T08:19:02.191Z,1000.44
2019-05-21T08:20:08.442Z,1000.41
2019-05-21T08:21:24.525Z,1000.41
2019-05-21T08:22:21.561Z,1000.44
2019-05-21T08:23:27.510Z,1000.43
2019-05-21T08:24:16.762Z,1000.41
2019-05-21T08:25:35.919Z,1000.47
2019-05-21T08:26:37.254Z,1000.49
2019-05-21T08:27:35.623Z,1000.50
2019-05-21T08:28:51.611Z,1000.50
2019-05-21T08:29:42.807Z,1000.50
2019-05-21T08:30:54.589Z,1000.50
2019-05-21T08:31:57.876Z,1000.53
2019-05-21T08:33:15.802Z,1000.53
2019-05-21T08:34:33.627Z,1000.58
2019-05-21T08:35:18.067Z,1000.61
2019-05-21T08:36:27.823Z,1000.64
2019-05-21T08:37:31.803Z,1000.60
2019-05-21T08:38:42.156Z,1000.67
2019-05-21T08:39:34.069Z,1000.67
2019-05-21T08:40:58.037Z,1000.71
2019-05-21T08:41:51.809Z,1000.74
2019-05-21T08:43:14.232Z,1000.74
2019-05-21T08:44:03.178Z,1000.77
2019-05-21T08:45:19.059Z,1000.79
2019-05-21T08:46:07.295Z,1000.79
2019-05-21T08:47:25.122Z,1000.81
2019-05-21T08:48:10.885Z,1000.81
2019-05-21T08:49:26.253Z,1000.83
2019-05-21T08:50:48.995Z,1000.83
2019-05-21T08:51:47.167Z,1000.84
2019-05-21T08:52:45.115Z,1000.82
2019-05-21T08:54:06.010Z,1000.85
2019-05-21T08:55:05.206Z,1000.83
2019-05-21T08:55:54.045Z,1000.81
2019-05-21T08:57:09.006Z,1000.80
2019-05-21T08:58:07.394Z,1000.86
2019-05-21T08:59:22.942Z,1000.85
2019-05-21T09:00:13.528Z,1000.88
2019-05-21T09:01:41.898Z,1000.90
2019-05-21T09:02:50.204Z,1000.88
2019-05-21T09:04:10.075Z,1000.89
2019-05-21T09:05:05.268Z,1000.91
2019-05-21T09:06:13.159Z,1000.88
2019-05-21T09:06:58.321Z,1000.90
2019-05-21T09:08:05.701Z,1000.89
2019-05-21T09:08:58.232Z,1000.95
2019-05-21T09:10:24.349Z,1000.95
2019-05-21T09:11:29.685Z,1000.94
2019-05-21T09:12:28.354Z,1000.96
2019-05-21T09:13:40.759Z,1001.01
2019-05-21T09:14:33.604Z,1001.02
2019-05-21T09:15:33.609Z,1001.06
2019-05-21T09:16:45.692Z,1001.00
2019-05-21T09:17:57.479Z,1001.04
2019-05-21T09:19:04.855Z,1001.04
2019-05-21T09:20:14.820Z,1001.02
2019-05-21T09:20:57.706Z,1000.99
2019-05-21T09:21:58.214Z,1001.00
2019-05-21T09:23:31.912Z,1001.01
2019-05-21T09:24:23.728Z,1001.01
2019-05-21T09:26:02.956Z,1000.96
2019-05-21T09:26:56.721Z,1000.98
2019-05-21T09:27:59.588Z,1000.92
2019-05-21T09:29:18.234Z,1000.92
2019-05-21T09:30:12.709Z,1000.89
2019-05-21T09:31:30.739Z,1000.91
2019-05-21T09:32:31.056Z,1000.94
2019-05-21T09:33:17.031Z,1000.93
2019-05-21T09:34:47.394Z,1000.91
2019-05-21T09:35:52.793Z,1000.93
2019-05-21T09:36:28.240Z,1000.93
2019-05-21T09:38:00.476Z,1000.96
2019-05-21T09:38:34.065Z,1000.96
2019-05-21T09:40:22.199Z,1001.01
2019-05-21T09:40:56.096Z,1001.00
2019-05-21T09:42:26.208Z,1001.04
2019-05-21T09:43:13.208Z,1000.99
2019-05-21T09:44:38.892Z,1001.05
2019-05-21T09:45:47.528Z,1001.03
2019-05-21T09:46:55.626Z,1001.06
2019-05-21T09:48:01.298Z,1001.11
2019-05-21T09:48:47.137Z,1001.09
2019-05-21T09:49:42.027Z,1001.10
2019-05-21T09:51:07.327Z,1001.14
2019-05-21T09:51:49.819Z,1001.15
2019-05-21T09:53:07.236Z,1001.13
2019-05-21T09:53:54.750Z,1001.19
2019-05-21T09:55:20.253Z,1001.25
2019-05-21T09:56:41.356Z,1001.20
2019-05-21T09:57:53.246Z,1001.26
2019-05-21T09:58:28.168Z,1001.26
2019-05-21T09:59:40.251Z,1001.22
2019-05-21T10:01:08.723Z,1001.31
2019-05-21T10:01:50.208Z,1001.24
2019-05-21T10:03:06.282Z,1001.22
2019-05-21T10:03:50.212Z,1001.27
2019-05-21T10:05:13.769Z,1001.26
2019-05-21T10:06:18.594Z,1001.30
2019-05-21T10:07:15.422Z,1001.36
2019-05-21T10:08:17.479Z,1001.36
2019-05-21T10:09:20.147Z,1001.34
2019-05-21T10:10:44.419Z,1001.42
2019-05-21T10:11:39.819Z,1001.44
2019-05-21T10:12:37.681Z,1001.35
2019-05-21T10:13:50.586Z,1001.43
2019-05-21T10:15:11.792Z,1001.41
2019-05-21T10:16:06.268Z,1001.48
2019-05-21T10:17:03.611Z,1001.53
2019-05-21T10:18:09.862Z,1001.51
2019-05-21T10:19:45.817Z,1001.48
2019-05-21T10:20:28.624Z,1001.53
2019-05-21T10:21:25.934Z,1001.58
2019-05-21T10:22:38.258Z,1001.51
2019-05-21T10:24:04.684Z,1001.54
2019-05-21T10:24:48.818Z,1001.56
2019-05-21T10:26:06.025Z,1001.54
2019-05-21T10:26:53.130Z,1001.50
2019-05-21T10:27:49.453Z,1001.49
2019-05-21T10:29:13.117Z,1001.52
2019-05-21T10:30:08.924Z,1001.57
2019-05-21T10:31:28.283Z,1001.55
2019-05-21T10:32:25.132Z,1001.56
2019-05-21T10:33:34.952Z,1001.58
2019-05-21T10:34:46.019Z,1001.60
2019-05-21T10:35:50.325Z,1001.55
2019-05-21T10:37:08.971Z,1001.56
2019-05-21T10:37:34.059Z,1001.56
2019-05-21T10:39:11.746Z,1001.59
2019-05-21T10:40:08.174Z,1001.61
2019-05-21T10:41:02.042Z,1001.61
2019-05-21T10:42:14.231Z,1001.62
2019-05-21T10:43:19.659Z,1001.63
2019-05-21T10:44:24.897Z,1001.69
2019-05-21T10:45:25.206Z,1001.69
2019-05-21T10:46:30.338Z,1001.72
2019-05-21T10:47:56.145Z,1001.72
2019-05-21T10:48:49.191Z,1001.77
2019-05-21T10:49:48.685Z,1001.78
2019-05-21T10:51:06.614Z,1001.81
2019-05-21T10:52:04.366Z,1001.77
2019-05-21T10:53:08.570Z,1001.83
2019-05-21T10:54:07.038Z,1001.82
2019-05-21T10:55:32.527Z,1001.85
2019-05-21T10:56:47.497Z,1001.88
2019-05-21T10:57:22.252Z,1001.91
2019-05-21T10:58:43.623Z,1001.88
2019-05-21T10:59:41.584Z,1001.97
2019-05-21T11:00:56.543Z,1001.93
2019-05-21T11:01:45.589Z,1001.96
2019-05-21T11:03:01.472Z,1002.01
2019-05-21T11:04:11.553Z,1001.99
2019-05-21T11:05:04.660Z,1002.01
2019-05-21T11:06:10.818Z,1002.09
2019-05-21T11:07:10.612Z,1002.09
2019-05-21T11:08:30.484Z,1002.02
2019-05-21T11:09:30.080Z,1002.11
2019-05-21T11:10:36.745Z,1002.12
2019-05-21T11:11:48.277Z,1002.12
2019-05-21T11:12:52.738Z,1002.14
2019-05-21T11:13:45.979Z,1002.15
2019-05-21T11:14:50.084Z,1002.12
2019-05-21T11:16:06.190Z,1002.16
2019-05-21T11:17:04.845Z,1002.16
2019-05-21T11:18:19.184Z,1002.15
2019-05-21T11:19:27.396Z,1002.17
2019-05-21T11:20:38.246Z,1002.21
2019-05-21T11:21:35.484Z,1002.22
2019-05-21T11:22:30.067Z,1002.18
2019-05-21T11:23:47.002Z,1002.22
2019-05-21T11:24:52.199Z,1002.23
2019-05-21T11:25:46.078Z,1002.27
2019-05-21T11:26:54.268Z,1002.25
2019-05-21T11:28:01.345Z,1002.25
2019-05-21T11:29:17.112Z,1002.25
2019-05-21T11:30:15.403Z,1002.29
2019-05-21T11:31:32.177Z,1002.28
2019-05-21T11:32:24.197Z,1002.31
2019-05-21T11:33:27.992Z,1002.26
2019-05-21T11:34:43.269Z,1002.31
2019-05-21T11:35:43.472Z,1002.33
2019-05-21T11:36:49.620Z,1002.30
2019-05-21T11:37:53.416Z,1002.29
2019-05-21T11:39:09.931Z,1002.28
2019-05-21T11:40:12.184Z,1002.27
2019-05-21T11:41:08.491Z,1002.28
2019-05-21T11:42:19.575Z,1002.29
2019-05-21T11:43:19.353Z,1002.28
2019-05-21T11:44:24.586Z,1002.28
2019-05-21T11:45:36.674Z,1002.29
2019-05-21T11:46:30.231Z,1002.30
2019-05-21T11:47:47.644Z,1002.29
2019-05-21T11:48:55.492Z,1002.30
2019-05-21T11:50:11.836Z,1002.29
2019-05-21T11:50:57.499Z,1002.31
2019-05-21T11:52:09.383Z,1002.32
2019-05-21T11:53:35.306Z,1002.38
2019-05-21T11:54:47.394Z,1002.35
2019-05-21T11:55:13.395Z,1002.34
2019-05-21T11:56:31.639Z,1002.40
2019-05-21T11:57:42.492Z,1002.40
2019-05-21T11:58:45.784Z,1002.36
2019-05-21T11:59:52.848Z,1002.38
2019-05-21T12:00:41.495Z,1002.35
2019-05-21T12:02:03.411Z,1002.38
2019-05-21T12:02:52.583Z,1002.38
2019-05-21T12:03:59.642Z,1002.41
2019-05-21T12:05:21.162Z,1002.41
2019-05-21T12:06:29.447Z,1002.37
2019-05-21T12:07:31.413Z,1002.45
2019-05-21T12:08:54.075Z,1002.48
2019-05-21T12:09:58.754Z,1002.43
2019-05-21T12:10:41.762Z,1002.51
2019-05-21T12:11:44.135Z,1002.52
2019-05-21T12:12:48.226Z,1002.59
2019-05-21T12:13:56.223Z,1002.58
2019-05-21T12:14:58.585Z,1002.57
2019-05-21T12:16:17.956Z,1002.63
2019-05-21T12:17:30.241Z,1002.61
2019-05-21T12:18:07.309Z,1002.63
2019-05-21T12:19:28.208Z,1002.65
2019-05-21T12:20:43.268Z,1002.65
2019-05-21T12:21:25.147Z,1002.67
2019-05-21T12:22:53.314Z,1002.68
2019-05-21T12:23:44.416Z,1002.68
2019-05-21T12:24:39.812Z,1002.70
2019-05-21T12:26:01.323Z,1002.73
2019-05-21T12:27:19.146Z,1002.72
2019-05-21T12:28:05.133Z,1002.76
2019-05-21T12:29:32.001Z,1002.77
2019-05-21T12:30:06.775Z,1002.83
2019-05-21T12:31:37.195Z,1002.81
2019-05-21T12:32:31.368Z,1002.81
2019-05-21T12:33:46.458Z,1002.80
2019-05-21T12:34:55.137Z,1002.82
2019-05-21T12:36:03.647Z,1002.84
2019-05-21T12:36:59.040Z,1002.88
2019-05-21T12:37:48.397Z,1002.87
2019-05-21T12:39:13.567Z,1002.90
2019-05-21T12:40:29.578Z,1002.92
2019-05-21T12:41:40.644Z,1002.91
2019-05-21T12:42:37.376Z,1002.96
2019-05-21T12:43:43.719Z,1002.98
2019-05-21T12:44:47.746Z,1002.99
2019-05-21T12:45:55.627Z,1003.03
2019-05-21T12:47:03.621Z,1003.00
2019-05-21T12:47:58.978Z,1003.03
2019-05-21T12:48:40.485Z,1003.08
2019-05-21T12:50:33.551Z,1003.03
2019-05-21T12:51:28.323Z,1003.01
2019-05-21T12:52:37.135Z,1003.04
2019-05-21T12:53:53.938Z,1003.05
2019-05-21T12:54:35.817Z,1003.05
2019-05-21T12:55:36.029Z,1003.08
2019-05-21T12:56:48.017Z,1003.05
2019-05-21T12:59:02.576Z,1003.02
2019-05-21T12:59:49.842Z,1003.09
2019-05-21T13:01:05.060Z,1003.06
2019-05-21T13:02:03.725Z,1003.07
2019-05-21T13:02:57.997Z,1003.07
2019-05-21T13:04:35.071Z,1003.12
2019-05-21T13:05:11.065Z,1003.17
2019-05-21T13:06:22.176Z,1003.12
2019-05-21T13:07:13.942Z,1003.15
2019-05-21T13:08:45.847Z,1003.13
2019-05-21T13:10:26.787Z,1003.20
2019-05-21T13:12:18.944Z,1003.19
2019-05-21T13:13:50.079Z,1003.27
2019-05-21T13:14:42.101Z,1003.24
2019-05-21T13:15:46.305Z,1003.30
2019-05-21T13:17:01.058Z,1003.27
2019-05-21T13:18:31.703Z,1003.29
2019-05-21T13:19:12.027Z,1003.33
2019-05-21T13:20:30.363Z,1003.29
2019-05-21T13:21:25.254Z,1003.28
2019-05-21T13:22:28.328Z,1003.37
2019-05-21T13:24:15.848Z,1003.37
2019-05-21T13:25:54.257Z,1003.35
2019-05-21T13:26:40.341Z,1003.36
2019-05-21T13:27:58.572Z,1003.42
2019-05-21T13:29:30.326Z,1003.39
2019-05-21T13:30:58.490Z,1003.37
2019-05-21T13:32:23.383Z,1003.41
2019-05-21T13:34:18.076Z,1003.42
2019-05-21T13:35:52.380Z,1003.46
2019-05-21T13:36:35.595Z,1003.47
2019-05-21T13:38:22.401Z,1003.53
2019-05-21T13:39:10.934Z,1003.53